Terminal Aerodrome Forecast
Issued by NWS

Home | Current Version | Previous Version | Text Only | Print | Product List | Glossary On
Versions: 1 2 3 4 5 6 7 8 9 10 11 12
100
FTUS43 KOAX 200520
TAFBFF
TAF
KBFF 200520Z 2006/2106 VRB04KT P6SM BKN200
     FM201500 04007KT P6SM BKN100
     FM202100 05008KT P6SM VCSH OVC015
     FM210000 05010KT 1SM -SN OVC010=

USA.gov is the U.S. government's official web portal to all federal, state and local government web resources and services.